createdAt,value
2017-03-26T00:00:24.357Z,0
2017-03-26T00:01:37.111Z,0
2017-03-26T00:02:50.356Z,0
2017-03-26T00:04:03.587Z,0
2017-03-26T00:05:16.317Z,0
2017-03-26T00:06:29.618Z,0
2017-03-26T00:07:42.933Z,0
2017-03-26T00:08:56.229Z,0
2017-03-26T00:10:08.957Z,0
2017-03-26T00:11:22.263Z,0
2017-03-26T00:12:35.527Z,0
2017-03-26T00:13:48.762Z,0
2017-03-26T00:15:02.089Z,0
2017-03-26T00:16:14.839Z,0
2017-03-26T00:17:28.158Z,0
2017-03-26T00:18:41.425Z,0
2017-03-26T00:19:54.668Z,0
2017-03-26T00:21:07.930Z,0
2017-03-26T00:22:21.222Z,0
2017-03-26T00:23:34.485Z,0
2017-03-26T00:24:47.220Z,0
2017-03-26T00:26:00.476Z,0
2017-03-26T00:27:13.761Z,0
2017-03-26T00:28:27.018Z,0
2017-03-26T00:29:40.305Z,0
2017-03-26T00:30:53.055Z,0
2017-03-26T00:32:06.309Z,0
2017-03-26T00:33:19.572Z,0
2017-03-26T00:34:32.838Z,0
2017-03-26T00:35:46.073Z,0
2017-03-26T00:36:59.324Z,0
2017-03-26T00:38:12.591Z,0
2017-03-26T00:39:25.337Z,0
2017-03-26T00:40:38.160Z,0
2017-03-26T00:41:51.395Z,0
2017-03-26T00:43:04.631Z,0
2017-03-26T00:44:17.902Z,0
2017-03-26T00:45:30.651Z,0
2017-03-26T00:46:43.390Z,0
2017-03-26T00:47:56.626Z,0
2017-03-26T00:49:09.375Z,0
2017-03-26T00:50:22.120Z,0
2017-03-26T00:51:35.358Z,0
2017-03-26T00:52:48.748Z,0
2017-03-26T00:54:02.063Z,0
2017-03-26T00:55:14.795Z,0
2017-03-26T00:56:28.094Z,0
2017-03-26T00:57:41.413Z,0
2017-03-26T00:58:55.295Z,0
2017-03-26T01:00:08.658Z,0
2017-03-26T01:01:22.598Z,0
2017-03-26T01:02:36.551Z,0
2017-03-26T01:03:50.538Z,0
2017-03-26T01:05:04.466Z,0
2017-03-26T01:06:18.389Z,0
2017-03-26T01:07:32.322Z,0
2017-03-26T01:08:46.263Z,0
2017-03-26T01:10:00.250Z,0
2017-03-26T01:11:14.189Z,0
2017-03-26T01:12:27.566Z,0
2017-03-26T01:13:40.985Z,0
2017-03-26T01:14:54.923Z,0
2017-03-26T01:16:08.310Z,0
2017-03-26T01:17:22.282Z,0
2017-03-26T01:18:35.679Z,0
2017-03-26T01:19:49.611Z,0
2017-03-26T01:21:03.591Z,0
2017-03-26T01:22:16.973Z,0
2017-03-26T01:23:30.948Z,0
2017-03-26T01:24:44.884Z,0
2017-03-26T01:25:58.820Z,0
2017-03-26T01:27:11.654Z,0
2017-03-26T01:28:25.050Z,0
2017-03-26T01:29:38.993Z,0
2017-03-26T01:30:52.377Z,0
2017-03-26T01:32:06.330Z,0
2017-03-26T01:33:20.257Z,0
2017-03-26T01:34:34.167Z,0
2017-03-26T01:35:48.154Z,0
2017-03-26T01:37:02.104Z,0
2017-03-26T01:38:15.472Z,0
2017-03-26T01:39:29.420Z,0
2017-03-26T01:40:43.363Z,0
2017-03-26T01:41:57.323Z,0
2017-03-26T01:43:11.285Z,0
2017-03-26T01:44:25.274Z,0
2017-03-26T01:45:39.218Z,0
2017-03-26T01:46:53.175Z,0
2017-03-26T01:48:07.116Z,0
2017-03-26T01:49:21.054Z,0
2017-03-26T01:50:34.442Z,0
2017-03-26T01:51:48.373Z,0
2017-03-26T01:53:02.321Z,0
2017-03-26T01:54:16.247Z,0
2017-03-26T01:55:30.227Z,0
2017-03-26T01:56:43.592Z,0
2017-03-26T01:57:57.508Z,0
2017-03-26T01:59:11.439Z,0
2017-03-26T02:00:24.835Z,0
2017-03-26T02:01:38.801Z,0
2017-03-26T02:02:52.778Z,0
2017-03-26T02:04:06.706Z,0
2017-03-26T02:05:21.089Z,0
2017-03-26T02:06:33.880Z,0
2017-03-26T02:07:47.847Z,0
2017-03-26T02:09:01.834Z,0
2017-03-26T02:10:15.789Z,0
2017-03-26T02:11:29.707Z,0
2017-03-26T02:12:43.683Z,0
2017-03-26T02:13:57.625Z,0
2017-03-26T02:15:11.559Z,0
2017-03-26T02:16:25.577Z,0
2017-03-26T02:17:39.497Z,0
2017-03-26T02:18:52.886Z,0
2017-03-26T02:20:06.832Z,0
2017-03-26T02:21:20.205Z,0
2017-03-26T02:22:34.184Z,0
2017-03-26T02:23:48.153Z,0
2017-03-26T02:25:02.089Z,0
2017-03-26T02:26:16.023Z,0
2017-03-26T02:27:29.980Z,0
2017-03-26T02:28:43.971Z,0
2017-03-26T02:29:57.913Z,0
2017-03-26T02:31:11.869Z,0
2017-03-26T02:32:25.850Z,0
2017-03-26T02:33:39.806Z,0
2017-03-26T02:34:53.727Z,0
2017-03-26T02:36:07.704Z,0
2017-03-26T02:37:21.142Z,0
2017-03-26T02:38:33.441Z,0
2017-03-26T02:39:47.376Z,0
2017-03-26T02:41:01.288Z,0
2017-03-26T02:42:15.286Z,0
2017-03-26T02:43:29.209Z,0
2017-03-26T02:44:43.153Z,0
2017-03-26T02:45:57.088Z,0
2017-03-26T02:47:11.030Z,0
2017-03-26T02:48:24.441Z,0
2017-03-26T02:49:38.381Z,0
2017-03-26T02:50:52.311Z,0
2017-03-26T02:52:06.262Z,0
2017-03-26T02:53:20.188Z,0
2017-03-26T02:54:34.137Z,0
2017-03-26T02:55:48.090Z,0
2017-03-26T02:57:02.037Z,0
2017-03-26T02:58:15.997Z,0
2017-03-26T02:59:29.952Z,0
2017-03-26T03:00:43.387Z,0
2017-03-26T03:01:57.342Z,0
2017-03-26T03:03:11.364Z,0
2017-03-26T03:04:25.372Z,0
2017-03-26T03:05:38.774Z,0
2017-03-26T03:06:52.728Z,0
2017-03-26T03:08:06.097Z,0
2017-03-26T03:09:20.060Z,0
2017-03-26T03:10:33.995Z,0
2017-03-26T03:11:47.434Z,0
2017-03-26T03:13:01.371Z,0
2017-03-26T03:14:15.315Z,0
2017-03-26T03:15:29.289Z,0
2017-03-26T03:16:43.249Z,0
2017-03-26T03:17:57.253Z,0
2017-03-26T03:19:11.174Z,0
2017-03-26T03:20:25.088Z,0
2017-03-26T03:21:39.074Z,0
2017-03-26T03:22:53.012Z,0
2017-03-26T03:24:06.415Z,0
2017-03-26T03:25:20.368Z,0
2017-03-26T03:26:33.706Z,0
2017-03-26T03:27:47.637Z,0
2017-03-26T03:29:01.547Z,0
2017-03-26T03:30:15.471Z,0
2017-03-26T03:31:29.453Z,0
2017-03-26T03:32:43.396Z,0
2017-03-26T03:33:57.402Z,0
2017-03-26T03:35:11.321Z,0
2017-03-26T03:36:24.709Z,0
2017-03-26T03:37:38.072Z,0
2017-03-26T03:38:51.454Z,0
2017-03-26T03:40:05.380Z,0
2017-03-26T03:41:19.324Z,0
2017-03-26T03:42:33.254Z,0
2017-03-26T03:43:46.617Z,0
2017-03-26T03:45:00.618Z,0
2017-03-26T03:46:14.566Z,0
2017-03-26T03:47:28.516Z,0
2017-03-26T03:48:42.442Z,0
2017-03-26T03:49:55.828Z,0
2017-03-26T03:51:09.811Z,0
2017-03-26T03:52:23.778Z,0
2017-03-26T03:53:37.155Z,0
2017-03-26T03:54:51.119Z,0
2017-03-26T03:56:05.115Z,0
2017-03-26T03:57:19.065Z,0
2017-03-26T03:58:33.014Z,0
2017-03-26T03:59:46.400Z,0
2017-03-26T04:01:00.337Z,0
2017-03-26T04:02:13.678Z,0
2017-03-26T04:03:27.638Z,0
2017-03-26T04:04:41.578Z,0
2017-03-26T04:05:55.499Z,0
2017-03-26T04:07:09.442Z,0
2017-03-26T04:08:22.842Z,0
2017-03-26T04:09:36.838Z,0
2017-03-26T04:10:50.221Z,0
2017-03-26T04:12:04.176Z,0
2017-03-26T04:13:18.120Z,0
2017-03-26T04:14:32.060Z,0
2017-03-26T04:15:46.027Z,0
2017-03-26T04:16:59.974Z,0
2017-03-26T04:18:13.382Z,0
2017-03-26T04:19:27.335Z,0
2017-03-26T04:20:41.293Z,0
2017-03-26T04:21:55.235Z,0
2017-03-26T04:23:09.179Z,0
2017-03-26T04:24:23.127Z,0
2017-03-26T04:25:37.049Z,0
2017-03-26T04:26:51.077Z,0
2017-03-26T04:28:05.029Z,0
2017-03-26T04:29:18.955Z,0
2017-03-26T04:30:32.898Z,0
2017-03-26T04:31:46.863Z,0
2017-03-26T04:33:00.252Z,0
2017-03-26T04:34:14.218Z,0
2017-03-26T04:35:28.204Z,0
2017-03-26T04:36:42.185Z,0
2017-03-26T04:37:55.551Z,0
2017-03-26T04:39:09.469Z,0
2017-03-26T04:40:23.419Z,0
2017-03-26T04:41:36.831Z,0
2017-03-26T04:42:50.788Z,0
2017-03-26T04:44:04.744Z,0
2017-03-26T04:45:18.124Z,0
2017-03-26T04:46:32.074Z,0
2017-03-26T04:47:46.013Z,0
2017-03-26T04:48:59.971Z,0
2017-03-26T04:50:13.902Z,0
2017-03-26T04:51:27.796Z,0
2017-03-26T04:52:41.723Z,0
2017-03-26T04:53:55.713Z,0
2017-03-26T04:55:09.101Z,0
2017-03-26T04:56:22.012Z,0
2017-03-26T04:57:35.984Z,0
2017-03-26T04:58:49.935Z,0
2017-03-26T05:00:03.883Z,0
2017-03-26T05:01:17.831Z,0
2017-03-26T05:02:31.743Z,0
2017-03-26T05:03:45.109Z,0
2017-03-26T05:04:59.026Z,0
2017-03-26T05:06:12.961Z,0
2017-03-26T05:07:26.917Z,0
2017-03-26T05:08:40.896Z,0
2017-03-26T05:09:54.856Z,0
2017-03-26T05:11:08.840Z,0
2017-03-26T05:12:22.213Z,0
2017-03-26T05:13:35.623Z,0
2017-03-26T05:14:49.755Z,0
2017-03-26T05:16:02.987Z,0
2017-03-26T05:17:16.218Z,0
2017-03-26T05:18:29.449Z,0
2017-03-26T05:19:42.679Z,0
2017-03-26T05:20:55.877Z,0
2017-03-26T05:22:08.610Z,0
2017-03-26T05:23:21.954Z,0
2017-03-26T05:24:35.186Z,0
2017-03-26T05:25:48.394Z,0
2017-03-26T05:27:01.614Z,0
2017-03-26T05:28:14.841Z,0
2017-03-26T05:29:27.574Z,0
2017-03-26T05:30:40.794Z,0
2017-03-26T05:31:54.009Z,0
2017-03-26T05:33:06.705Z,0
2017-03-26T05:34:19.963Z,0
2017-03-26T05:35:33.193Z,0
2017-03-26T05:36:45.936Z,0
2017-03-26T05:37:59.208Z,0
2017-03-26T05:39:12.488Z,0
2017-03-26T05:40:25.694Z,0
2017-03-26T05:41:38.915Z,0
2017-03-26T05:42:52.151Z,0
2017-03-26T05:44:05.396Z,0
2017-03-26T05:45:18.627Z,0
2017-03-26T05:46:31.325Z,0
2017-03-26T05:47:44.555Z,0
2017-03-26T05:48:57.295Z,0
2017-03-26T05:50:10.533Z,0
2017-03-26T05:51:23.755Z,0
2017-03-26T05:52:36.995Z,0
2017-03-26T05:53:50.240Z,0
2017-03-26T05:55:02.462Z,0
2017-03-26T05:56:15.703Z,0
2017-03-26T05:57:28.953Z,0
2017-03-26T05:58:41.186Z,0
2017-03-26T05:59:54.435Z,0
2017-03-26T06:01:07.688Z,0
2017-03-26T06:02:20.924Z,0
2017-03-26T06:03:34.184Z,0
2017-03-26T06:04:47.423Z,0
2017-03-26T06:06:00.671Z,0
2017-03-26T06:07:13.974Z,0
2017-03-26T06:08:27.215Z,0
2017-03-26T06:09:40.475Z,0
2017-03-26T06:10:53.673Z,0
2017-03-26T06:12:06.855Z,0
2017-03-26T06:13:20.091Z,0
2017-03-26T06:14:33.335Z,0
2017-03-26T06:15:46.061Z,0
2017-03-26T06:16:59.373Z,0
2017-03-26T06:18:12.094Z,0
2017-03-26T06:19:25.347Z,0
2017-03-26T06:20:38.564Z,0
2017-03-26T06:21:51.789Z,0
2017-03-26T06:23:05.058Z,0
2017-03-26T06:24:18.295Z,0
2017-03-26T06:25:31.545Z,0
2017-03-26T06:26:44.778Z,0
2017-03-26T06:27:58.037Z,0
2017-03-26T06:29:11.298Z,0
2017-03-26T06:30:24.537Z,0
2017-03-26T06:31:37.250Z,0
2017-03-26T06:32:50.488Z,0
2017-03-26T06:34:03.710Z,0
2017-03-26T06:35:16.938Z,0
2017-03-26T06:36:30.197Z,0
2017-03-26T06:37:43.459Z,0
2017-03-26T06:38:56.700Z,0
2017-03-26T06:40:09.961Z,0
2017-03-26T06:41:22.656Z,0
2017-03-26T06:42:35.889Z,0
2017-03-26T06:43:49.142Z,0
2017-03-26T06:45:02.367Z,0
2017-03-26T06:46:15.611Z,0
2017-03-26T06:47:28.890Z,0
2017-03-26T06:48:42.145Z,0
2017-03-26T06:49:55.362Z,0
2017-03-26T06:51:08.579Z,0
2017-03-26T06:52:21.798Z,0
2017-03-26T06:53:35.032Z,0
2017-03-26T06:54:48.243Z,0
2017-03-26T06:56:01.436Z,0
2017-03-26T06:57:14.655Z,0
2017-03-26T06:58:27.396Z,0
2017-03-26T06:59:40.133Z,0
2017-03-26T07:00:53.361Z,0
2017-03-26T07:02:06.600Z,0
2017-03-26T07:03:19.834Z,0
2017-03-26T07:04:32.548Z,0
2017-03-26T07:05:45.757Z,0
2017-03-26T07:06:58.983Z,0
2017-03-26T07:08:11.686Z,0
2017-03-26T07:09:24.436Z,0
2017-03-26T07:10:37.663Z,0
2017-03-26T07:11:50.903Z,0
2017-03-26T07:13:04.169Z,0
2017-03-26T07:14:17.399Z,0
2017-03-26T07:15:30.684Z,0
2017-03-26T07:16:43.425Z,0
2017-03-26T07:17:56.652Z,0
2017-03-26T07:19:09.930Z,0
2017-03-26T07:20:23.170Z,0
2017-03-26T07:21:36.396Z,0
2017-03-26T07:22:49.642Z,0
2017-03-26T07:24:02.856Z,0
2017-03-26T07:25:16.111Z,0
2017-03-26T07:26:28.836Z,0
2017-03-26T07:27:42.115Z,0
2017-03-26T07:28:55.318Z,0
2017-03-26T07:30:08.064Z,0
2017-03-26T07:31:20.278Z,0
2017-03-26T07:32:33.045Z,0
2017-03-26T07:33:46.279Z,0
2017-03-26T07:34:59.491Z,0
2017-03-26T07:36:12.716Z,0
2017-03-26T07:37:25.932Z,0
2017-03-26T07:38:39.143Z,0
2017-03-26T07:39:52.369Z,0
2017-03-26T07:41:05.077Z,0
2017-03-26T07:42:18.304Z,0
2017-03-26T07:43:31.077Z,0
2017-03-26T07:44:44.312Z,0
2017-03-26T07:45:57.532Z,0
2017-03-26T07:47:10.755Z,0
2017-03-26T07:48:22.972Z,0
2017-03-26T07:49:36.207Z,0
2017-03-26T07:50:49.463Z,0
2017-03-26T07:52:02.730Z,0
2017-03-26T07:53:15.457Z,0
2017-03-26T07:54:28.732Z,0
2017-03-26T07:55:41.465Z,0
2017-03-26T07:56:54.706Z,0
2017-03-26T07:58:07.955Z,0
2017-03-26T07:59:20.682Z,0
2017-03-26T08:00:32.894Z,0
2017-03-26T08:01:46.101Z,0
2017-03-26T08:02:59.334Z,0
2017-03-26T08:04:11.548Z,0
2017-03-26T08:05:24.801Z,0
2017-03-26T08:06:38.060Z,0
2017-03-26T08:07:51.348Z,0
2017-03-26T08:09:04.578Z,0
2017-03-26T08:10:16.323Z,0
2017-03-26T08:11:29.013Z,0
2017-03-26T08:12:42.239Z,0
2017-03-26T08:13:55.468Z,0
2017-03-26T08:15:08.163Z,0
2017-03-26T08:16:21.364Z,0
2017-03-26T08:17:34.564Z,0
2017-03-26T08:18:47.767Z,0
2017-03-26T08:20:00.979Z,0
2017-03-26T08:21:14.181Z,0
2017-03-26T08:22:27.396Z,0
2017-03-26T08:23:40.606Z,0
2017-03-26T08:24:53.872Z,0
2017-03-26T08:26:07.122Z,0
2017-03-26T08:27:20.344Z,0
2017-03-26T08:28:33.066Z,0
2017-03-26T08:29:46.275Z,0
2017-03-26T08:30:59.486Z,0
2017-03-26T08:32:12.670Z,0
2017-03-26T08:33:25.874Z,0
2017-03-26T08:34:39.112Z,0
2017-03-26T08:35:52.338Z,0
2017-03-26T08:37:05.537Z,0
2017-03-26T08:38:18.758Z,0
2017-03-26T08:39:31.981Z,0
2017-03-26T08:40:45.201Z,0
2017-03-26T08:41:57.923Z,0
2017-03-26T08:43:11.137Z,0
2017-03-26T08:44:24.336Z,0
2017-03-26T08:45:37.545Z,0
2017-03-26T08:46:50.748Z,0
2017-03-26T08:48:03.966Z,0
2017-03-26T08:49:17.171Z,0
2017-03-26T08:50:30.399Z,0
2017-03-26T08:51:43.081Z,0
2017-03-26T08:52:56.300Z,0
2017-03-26T08:54:09.553Z,0
2017-03-26T08:55:21.734Z,0
2017-03-26T08:56:34.425Z,0
2017-03-26T08:57:47.180Z,0
2017-03-26T08:59:00.383Z,0
2017-03-26T09:00:13.059Z,0
2017-03-26T09:01:26.276Z,0
2017-03-26T09:02:39.483Z,5
2017-03-26T09:03:52.680Z,5
2017-03-26T09:05:05.876Z,5
2017-03-26T09:06:19.099Z,10
2017-03-26T09:07:32.330Z,10
2017-03-26T09:08:45.047Z,15
2017-03-26T09:09:58.245Z,20
2017-03-26T09:11:11.453Z,20
2017-03-26T09:12:24.680Z,25
2017-03-26T09:13:37.897Z,30
2017-03-26T09:14:51.089Z,35
2017-03-26T09:16:03.323Z,40
2017-03-26T09:17:16.545Z,50
2017-03-26T09:18:29.257Z,55
2017-03-26T09:19:42.483Z,60
2017-03-26T09:20:55.715Z,70
2017-03-26T09:22:08.921Z,80
2017-03-26T09:23:22.136Z,90
2017-03-26T09:24:35.370Z,100
2017-03-26T09:25:48.656Z,110
2017-03-26T09:27:01.890Z,125
2017-03-26T09:28:15.133Z,135
2017-03-26T09:29:27.849Z,130
2017-03-26T09:30:40.529Z,155
2017-03-26T09:31:53.757Z,160
2017-03-26T09:33:06.524Z,175
2017-03-26T09:34:19.256Z,235
2017-03-26T09:35:31.937Z,250
2017-03-26T09:36:45.159Z,270
2017-03-26T09:37:58.384Z,290
2017-03-26T09:39:11.641Z,325
2017-03-26T09:40:23.842Z,360
2017-03-26T09:41:36.592Z,385
2017-03-26T09:42:49.804Z,415
2017-03-26T09:44:02.526Z,440
2017-03-26T09:45:15.751Z,475
2017-03-26T09:46:29.020Z,515
2017-03-26T09:47:42.248Z,555
2017-03-26T09:48:55.515Z,600
2017-03-26T09:50:08.777Z,640
2017-03-26T09:51:22.020Z,660
2017-03-26T09:52:34.750Z,675
2017-03-26T09:53:47.504Z,700
2017-03-26T09:55:00.722Z,720
2017-03-26T09:56:13.918Z,760
2017-03-26T09:57:26.635Z,790
2017-03-26T09:58:39.345Z,825
2017-03-26T09:59:52.551Z,850
2017-03-26T10:01:05.824Z,845
2017-03-26T10:02:19.077Z,845
2017-03-26T10:03:32.307Z,870
2017-03-26T10:04:45.592Z,855
2017-03-26T10:05:58.823Z,845
2017-03-26T10:07:12.102Z,650
2017-03-26T10:08:25.453Z,650
2017-03-26T10:09:38.681Z,400
2017-03-26T10:10:51.926Z,405
2017-03-26T10:12:05.192Z,355
2017-03-26T10:13:18.428Z,360
2017-03-26T10:14:31.652Z,370
2017-03-26T10:15:44.898Z,380
2017-03-26T10:16:58.113Z,630
2017-03-26T10:18:11.336Z,415
2017-03-26T10:19:24.579Z,425
2017-03-26T10:20:37.815Z,435
2017-03-26T10:21:51.012Z,485
2017-03-26T10:23:04.220Z,480
2017-03-26T10:24:17.461Z,495
2017-03-26T10:25:30.689Z,520
2017-03-26T10:26:43.938Z,530
2017-03-26T10:27:57.151Z,690
2017-03-26T10:29:10.391Z,1505
2017-03-26T10:30:23.087Z,1345
2017-03-26T10:31:36.386Z,1565
2017-03-26T10:32:49.667Z,1685
2017-03-26T10:34:02.926Z,1745
2017-03-26T10:35:15.679Z,1690
2017-03-26T10:36:28.380Z,1840
2017-03-26T10:37:41.643Z,1890
2017-03-26T10:38:54.896Z,1600
2017-03-26T10:40:08.125Z,1015
2017-03-26T10:41:21.346Z,950
2017-03-26T10:42:34.613Z,1085
2017-03-26T10:43:47.848Z,1260
2017-03-26T10:45:00.077Z,1115
2017-03-26T10:46:13.321Z,1120
2017-03-26T10:47:26.559Z,1240
2017-03-26T10:48:39.834Z,1425
2017-03-26T10:49:53.099Z,1220
2017-03-26T10:51:05.851Z,1115
2017-03-26T10:52:19.115Z,1140
2017-03-26T10:53:32.342Z,1260
2017-03-26T10:54:45.621Z,1485
2017-03-26T10:55:58.931Z,1745
2017-03-26T10:57:11.662Z,1495
2017-03-26T10:58:24.945Z,1455
2017-03-26T10:59:38.286Z,1455
2017-03-26T11:00:51.511Z,1305
2017-03-26T11:02:04.758Z,1365
2017-03-26T11:03:17.989Z,1290
2017-03-26T11:04:30.716Z,1525
2017-03-26T11:05:43.420Z,1745
2017-03-26T11:06:56.707Z,1245
2017-03-26T11:08:09.456Z,905
2017-03-26T11:09:22.204Z,870
2017-03-26T11:10:35.464Z,880
2017-03-26T11:11:48.683Z,890
2017-03-26T11:13:01.990Z,1075
2017-03-26T11:14:15.208Z,1230
2017-03-26T11:15:28.470Z,1940
2017-03-26T11:16:41.210Z,1980
2017-03-26T11:17:54.486Z,2000
2017-03-26T11:19:07.718Z,1920
2017-03-26T11:20:19.928Z,1590
2017-03-26T11:21:32.163Z,1120
2017-03-26T11:22:44.904Z,1200
2017-03-26T11:23:57.651Z,1295
2017-03-26T11:25:09.917Z,1795
2017-03-26T11:26:23.207Z,1655
2017-03-26T11:27:36.457Z,1855
2017-03-26T11:28:49.210Z,1260
2017-03-26T11:30:02.466Z,1975
2017-03-26T11:31:15.697Z,1345
2017-03-26T11:32:28.934Z,1235
2017-03-26T11:33:42.161Z,1320
2017-03-26T11:34:55.396Z,1930
2017-03-26T11:36:08.654Z,1355
2017-03-26T11:37:21.910Z,1265
2017-03-26T11:38:34.635Z,2275
2017-03-26T11:39:47.868Z,1055
2017-03-26T11:41:01.146Z,955
2017-03-26T11:42:14.400Z,1310
2017-03-26T11:43:27.627Z,1205
2017-03-26T11:44:39.849Z,1745
2017-03-26T11:45:53.204Z,1135
2017-03-26T11:47:06.418Z,1105
2017-03-26T11:48:19.627Z,2610
2017-03-26T11:49:32.880Z,2555
2017-03-26T11:50:45.637Z,2495
2017-03-26T11:51:58.333Z,2450
2017-03-26T11:53:11.589Z,2260
2017-03-26T11:54:24.308Z,2085
2017-03-26T11:55:37.027Z,2060
2017-03-26T11:56:49.730Z,2100
2017-03-26T11:58:02.478Z,2480
2017-03-26T11:59:15.220Z,2440
2017-03-26T12:00:27.962Z,2605
2017-03-26T12:01:41.193Z,2700
2017-03-26T12:02:54.460Z,1240
2017-03-26T12:04:07.739Z,2665
2017-03-26T12:05:20.993Z,1570
2017-03-26T12:06:34.266Z,2745
2017-03-26T12:07:47.490Z,2975
2017-03-26T12:09:00.730Z,3170
2017-03-26T12:10:11.915Z,3160
2017-03-26T12:11:24.117Z,1295
2017-03-26T12:12:37.347Z,1160
2017-03-26T12:13:50.576Z,2485
2017-03-26T12:15:03.370Z,3325
2017-03-26T12:16:15.595Z,1410
2017-03-26T12:17:28.834Z,3215
2017-03-26T12:18:42.134Z,3020
2017-03-26T12:19:55.377Z,3210
2017-03-26T12:21:08.633Z,2990
2017-03-26T12:22:21.413Z,2975
2017-03-26T12:23:34.132Z,3035
2017-03-26T12:24:47.413Z,2995
2017-03-26T12:26:00.703Z,1175
2017-03-26T12:27:13.987Z,3095
2017-03-26T12:28:27.216Z,2895
2017-03-26T12:29:40.475Z,2805
2017-03-26T12:30:53.703Z,1155
2017-03-26T12:32:06.435Z,3140
2017-03-26T12:33:19.731Z,1190
2017-03-26T12:34:32.988Z,2070
2017-03-26T12:35:45.750Z,3085
2017-03-26T12:36:58.503Z,3060
2017-03-26T12:38:11.289Z,2885
2017-03-26T12:39:24.552Z,2655
2017-03-26T12:40:37.827Z,3295
2017-03-26T12:41:50.587Z,1040
2017-03-26T12:43:03.843Z,1135
2017-03-26T12:44:17.076Z,3595
2017-03-26T12:45:30.328Z,3335
2017-03-26T12:46:43.049Z,1210
2017-03-26T12:47:55.777Z,1325
2017-03-26T12:49:08.505Z,2935
2017-03-26T12:50:21.754Z,3090
2017-03-26T12:51:34.976Z,1125
2017-03-26T12:52:48.295Z,3170
2017-03-26T12:54:01.559Z,3250
2017-03-26T12:55:14.278Z,3000
2017-03-26T12:56:27.527Z,1070
2017-03-26T12:57:40.258Z,990
2017-03-26T12:58:53.526Z,1095
2017-03-26T13:00:06.792Z,3135
2017-03-26T13:01:19.003Z,3000
2017-03-26T13:02:31.774Z,3035
2017-03-26T13:03:45.056Z,1970
2017-03-26T13:04:58.303Z,2655
2017-03-26T13:06:11.043Z,2915
2017-03-26T13:07:24.282Z,3100
2017-03-26T13:08:37.548Z,3275
2017-03-26T13:09:50.313Z,1380
2017-03-26T13:11:03.562Z,3600
2017-03-26T13:12:16.805Z,3910
2017-03-26T13:13:29.034Z,1570
2017-03-26T13:14:41.793Z,1840
2017-03-26T13:15:55.052Z,1430
2017-03-26T13:17:08.303Z,4065
2017-03-26T13:18:21.617Z,4410
2017-03-26T13:19:34.882Z,4385
2017-03-26T13:20:48.120Z,4200
2017-03-26T13:21:59.829Z,3975
2017-03-26T13:23:12.600Z,3900
2017-03-26T13:24:25.875Z,3850
2017-03-26T13:25:39.137Z,4075
2017-03-26T13:26:52.394Z,4140
2017-03-26T13:28:05.654Z,4170
2017-03-26T13:29:50.099Z,2755
2017-03-26T13:31:02.800Z,4330
2017-03-26T13:32:15.538Z,1275
2017-03-26T13:33:28.823Z,1460
2017-03-26T13:34:42.117Z,3300
2017-03-26T13:35:55.377Z,2270
2017-03-26T13:37:08.651Z,3990
2017-03-26T13:38:21.893Z,4070
2017-03-26T13:39:35.193Z,4270
2017-03-26T13:40:48.436Z,2825
2017-03-26T13:42:01.685Z,4115
2017-03-26T13:43:14.948Z,4230
2017-03-26T13:44:27.761Z,4125
2017-03-26T13:45:40.510Z,4250
2017-03-26T13:46:53.759Z,4460
2017-03-26T13:48:06.993Z,4290
2017-03-26T13:49:20.258Z,4180
2017-03-26T13:50:33.569Z,4190
2017-03-26T13:51:46.336Z,1330
2017-03-26T13:52:59.577Z,1415
2017-03-26T13:54:12.864Z,1180
2017-03-26T13:55:25.618Z,1025
2017-03-26T13:56:38.870Z,2905
2017-03-26T13:57:52.157Z,3895
2017-03-26T13:59:05.415Z,2815
2017-03-26T14:00:18.179Z,3895
2017-03-26T14:01:31.432Z,3905
2017-03-26T14:02:43.664Z,4130
2017-03-26T14:03:56.926Z,3910
2017-03-26T14:05:10.215Z,3840
2017-03-26T14:06:23.485Z,3710
2017-03-26T14:07:36.274Z,4080
2017-03-26T14:08:49.525Z,3945
2017-03-26T14:10:02.243Z,4240
2017-03-26T14:11:15.484Z,3760
2017-03-26T14:12:28.713Z,3865
2017-03-26T14:13:41.993Z,3305
2017-03-26T14:14:55.289Z,3265
2017-03-26T14:16:08.563Z,1320
2017-03-26T14:17:21.871Z,2670
2017-03-26T14:18:35.163Z,1560
2017-03-26T14:19:48.456Z,4050
2017-03-26T14:21:01.702Z,3835
2017-03-26T14:22:14.970Z,3505
2017-03-26T14:23:28.238Z,4120
2017-03-26T14:24:40.965Z,3705
2017-03-26T14:25:54.173Z,4000
2017-03-26T14:27:06.934Z,3920
2017-03-26T14:28:19.714Z,4155
2017-03-26T14:29:32.469Z,4015
2017-03-26T14:30:45.707Z,4015
2017-03-26T14:31:58.955Z,4255
2017-03-26T14:33:12.234Z,4230
2017-03-26T14:34:25.522Z,4100
2017-03-26T14:35:38.269Z,3685
2017-03-26T14:36:51.532Z,3915
2017-03-26T14:38:04.280Z,4175
2017-03-26T14:39:17.547Z,3895
2017-03-26T14:40:30.785Z,4345
2017-03-26T14:41:44.042Z,4415
2017-03-26T14:42:57.304Z,1545
2017-03-26T14:44:10.557Z,1300
2017-03-26T14:45:23.834Z,1225
2017-03-26T14:46:37.073Z,1140
2017-03-26T14:47:50.314Z,1195
2017-03-26T14:49:03.562Z,4350
2017-03-26T14:50:15.825Z,4140
2017-03-26T14:51:28.060Z,3985
2017-03-26T14:52:41.297Z,4340
2017-03-26T14:53:54.546Z,4380
2017-03-26T14:55:07.252Z,3980
2017-03-26T14:56:20.485Z,4180
2017-03-26T14:57:33.732Z,2085
2017-03-26T14:58:47.043Z,3005
2017-03-26T14:59:59.814Z,4085
2017-03-26T15:01:13.093Z,3975
2017-03-26T15:02:26.308Z,3840
2017-03-26T15:03:39.548Z,4235
2017-03-26T15:04:52.272Z,4385
2017-03-26T15:06:05.518Z,4100
2017-03-26T15:07:18.733Z,4190
2017-03-26T15:08:31.448Z,4215
2017-03-26T15:09:44.686Z,4230
2017-03-26T15:10:57.931Z,4365
2017-03-26T15:12:10.175Z,4800
2017-03-26T15:13:22.445Z,2775
2017-03-26T15:14:35.730Z,1780
2017-03-26T15:15:48.435Z,4045
2017-03-26T15:17:01.202Z,4050
2017-03-26T15:18:13.935Z,1715
2017-03-26T15:19:27.194Z,2300
2017-03-26T15:20:40.434Z,3965
2017-03-26T15:21:53.144Z,4515
2017-03-26T15:23:06.391Z,4325
2017-03-26T15:24:19.663Z,4145
2017-03-26T15:25:32.462Z,4010
2017-03-26T15:26:45.711Z,4190
2017-03-26T15:27:58.950Z,3935
2017-03-26T15:29:12.210Z,3910
2017-03-26T15:30:25.470Z,3850
2017-03-26T15:31:37.711Z,3975
2017-03-26T15:32:50.470Z,3965
2017-03-26T15:34:03.222Z,4195
2017-03-26T15:35:16.460Z,3835
2017-03-26T15:36:29.713Z,3700
2017-03-26T15:37:42.448Z,3980
2017-03-26T15:38:55.701Z,3955
2017-03-26T15:40:08.445Z,3965
2017-03-26T15:41:21.709Z,3965
2017-03-26T15:42:34.489Z,3985
2017-03-26T15:43:47.751Z,3915
2017-03-26T15:45:00.497Z,3995
2017-03-26T15:46:13.760Z,4030
2017-03-26T15:47:27.021Z,4080
2017-03-26T15:48:40.283Z,1540
2017-03-26T15:49:53.541Z,1245
2017-03-26T15:51:06.788Z,1205
2017-03-26T15:52:19.504Z,1235
2017-03-26T15:53:32.744Z,1200
2017-03-26T15:54:46.028Z,1190
2017-03-26T15:55:59.279Z,3750
2017-03-26T15:57:12.558Z,3970
2017-03-26T15:58:25.858Z,4090
2017-03-26T15:59:38.594Z,4125
2017-03-26T16:00:51.871Z,4115
2017-03-26T16:02:05.162Z,3920
2017-03-26T16:03:18.403Z,4035
2017-03-26T16:04:31.143Z,4290
2017-03-26T16:05:43.862Z,3910
2017-03-26T16:06:57.080Z,4155
2017-03-26T16:08:10.312Z,4030
2017-03-26T16:09:23.536Z,4220
2017-03-26T16:10:36.814Z,4095
2017-03-26T16:11:49.557Z,3885
2017-03-26T16:13:02.778Z,3905
2017-03-26T16:14:16.201Z,4010
2017-03-26T16:15:29.417Z,4060
2017-03-26T16:16:42.156Z,3955
2017-03-26T16:17:55.409Z,2915
2017-03-26T16:19:08.654Z,1080
2017-03-26T16:20:21.415Z,995
2017-03-26T16:21:34.168Z,1185
2017-03-26T16:22:46.934Z,3630
2017-03-26T16:23:59.689Z,3645
2017-03-26T16:25:12.483Z,2405
2017-03-26T16:26:25.729Z,3700
2017-03-26T16:27:38.489Z,3615
2017-03-26T16:28:51.711Z,3630
2017-03-26T16:30:04.420Z,3635
2017-03-26T16:31:17.668Z,1665
2017-03-26T16:32:30.946Z,3845
2017-03-26T16:33:44.214Z,3865
2017-03-26T16:34:57.520Z,3170
2017-03-26T16:36:10.779Z,3040
2017-03-26T16:37:23.539Z,2630
2017-03-26T16:38:36.292Z,3600
2017-03-26T16:39:49.522Z,3640
2017-03-26T16:41:02.250Z,3600
2017-03-26T16:42:15.503Z,3765
2017-03-26T16:43:28.766Z,3695
2017-03-26T16:44:40.979Z,3825
2017-03-26T16:45:54.217Z,3515
2017-03-26T16:47:07.460Z,3545
2017-03-26T16:48:20.696Z,3860
2017-03-26T16:49:33.980Z,3830
2017-03-26T16:50:46.684Z,3495
2017-03-26T16:51:59.913Z,1875
2017-03-26T16:53:13.151Z,1280
2017-03-26T16:54:26.380Z,1085
2017-03-26T16:55:39.124Z,1130
2017-03-26T16:56:52.366Z,3160
2017-03-26T16:58:05.618Z,2410
2017-03-26T16:59:18.855Z,1130
2017-03-26T17:00:32.080Z,1660
2017-03-26T17:01:45.342Z,3255
2017-03-26T17:02:58.207Z,2945
2017-03-26T17:04:11.476Z,2935
2017-03-26T17:05:24.691Z,3240
2017-03-26T17:06:37.953Z,3150
2017-03-26T17:07:50.688Z,2765
2017-03-26T17:09:03.405Z,2965
2017-03-26T17:10:16.606Z,3050
2017-03-26T17:11:29.315Z,2650
2017-03-26T17:12:42.569Z,2930
2017-03-26T17:13:55.765Z,3010